Terminal Aerodrome Forecast
Issued by NWS

Current Version | Previous Version | Text Only | Print | Product List | Glossary Off
Versions: 1 2 3 4 5 6 7 8 9 10 11 12 13 14 15 16 17 18

537
FTUS41 KPBZ 170104 AAA
TAFMGW
TAF AMD
KMGW 170104Z 1701/1724 29005KT 3SM -SN OVC015
      TEMPO 1702/1703 2SM -SN
     FM170400 30005KT P6SM BKN035
     FM170700 29005KT P6SM BKN025
     FM172000 26005KT P6SM SCT035=

USA.gov is the U.S. government's official web portal to all federal, state and local government web resources and services.